sensor_id;sensor_type;location;lat;lon;timestamp;P1;durP1;ratioP1;P2;durP2;ratioP2
10144;SDS011;5113;41.822;23.564;2022-12-07T00:02:50;10.80;;;7.93;;
10144;SDS011;5113;41.822;23.564;2022-12-07T00:05:57;14.97;;;8.87;;
10144;SDS011;5113;41.822;23.564;2022-12-07T00:09:03;24.67;;;10.60;;
10144;SDS011;5113;41.822;23.564;2022-12-07T00:12:12;36.97;;;15.73;;
10144;SDS011;5113;41.822;23.564;2022-12-07T00:15:18;16.77;;;10.43;;
10144;SDS011;5113;41.822;23.564;2022-12-07T00:18:24;22.50;;;11.73;;
10144;SDS011;5113;41.822;23.564;2022-12-07T00:21:30;12.77;;;9.80;;
10144;SDS011;5113;41.822;23.564;2022-12-07T00:24:38;12.00;;;8.00;;
10144;SDS011;5113;41.822;23.564;2022-12-07T00:27:45;23.27;;;11.10;;
10144;SDS011;5113;41.822;23.564;2022-12-07T00:30:51;12.87;;;8.10;;
10144;SDS011;5113;41.822;23.564;2022-12-07T00:33:57;24.80;;;9.60;;
10144;SDS011;5113;41.822;23.564;2022-12-07T00:37:04;22.27;;;10.87;;
10144;SDS011;5113;41.822;23.564;2022-12-07T00:40:10;19.37;;;11.47;;
10144;SDS011;5113;41.822;23.564;2022-12-07T00:43:18;17.73;;;9.90;;
10144;SDS011;5113;41.822;23.564;2022-12-07T00:46:24;21.63;;;12.73;;
10144;SDS011;5113;41.822;23.564;2022-12-07T00:49:31;26.27;;;14.43;;
10144;SDS011;5113;41.822;23.564;2022-12-07T00:52:37;16.10;;;8.40;;
10144;SDS011;5113;41.822;23.564;2022-12-07T00:55:43;8.13;;;7.17;;
10144;SDS011;5113;41.822;23.564;2022-12-07T00:58:52;15.67;;;8.33;;
10144;SDS011;5113;41.822;23.564;2022-12-07T01:02:00;13.50;;;7.17;;
10144;SDS011;5113;41.822;23.564;2022-12-07T01:05:06;14.47;;;8.20;;
10144;SDS011;5113;41.822;23.564;2022-12-07T01:08:13;9.63;;;6.20;;
10144;SDS011;5113;41.822;23.564;2022-12-07T01:11:20;6.53;;;4.80;;
10144;SDS011;5113;41.822;23.564;2022-12-07T01:14:29;11.13;;;5.80;;
10144;SDS011;5113;41.822;23.564;2022-12-07T01:17:35;8.10;;;6.37;;
10144;SDS011;5113;41.822;23.564;2022-12-07T01:20:41;12.87;;;8.47;;
10144;SDS011;5113;41.822;23.564;2022-12-07T01:23:47;19.60;;;8.30;;
10144;SDS011;5113;41.822;23.564;2022-12-07T01:26:54;17.67;;;7.07;;
10144;SDS011;5113;41.822;23.564;2022-12-07T01:30:03;15.03;;;8.63;;
10144;SDS011;5113;41.822;23.564;2022-12-07T01:33:11;18.80;;;7.50;;
10144;SDS011;5113;41.822;23.564;2022-12-07T01:36:18;11.10;;;7.57;;
10144;SDS011;5113;41.822;23.564;2022-12-07T01:39:25;13.53;;;8.03;;
10144;SDS011;5113;41.822;23.564;2022-12-07T01:42:32;15.33;;;6.60;;
10144;SDS011;5113;41.822;23.564;2022-12-07T01:45:40;5.20;;;4.07;;
10144;SDS011;5113;41.822;23.564;2022-12-07T01:48:47;3.60;;;3.30;;
10144;SDS011;5113;41.822;23.564;2022-12-07T01:51:54;14.90;;;4.83;;
10144;SDS011;5113;41.822;23.564;2022-12-07T01:55:07;14.57;;;6.83;;
10144;SDS011;5113;41.822;23.564;2022-12-07T01:58:16;7.53;;;5.70;;
10144;SDS011;5113;41.822;23.564;2022-12-07T02:01:23;5.17;;;4.30;;
10144;SDS011;5113;41.822;23.564;2022-12-07T02:04:30;12.17;;;6.53;;
10144;SDS011;5113;41.822;23.564;2022-12-07T02:07:36;21.63;;;8.90;;
10144;SDS011;5113;41.822;23.564;2022-12-07T02:10:44;13.47;;;7.37;;
10144;SDS011;5113;41.822;23.564;2022-12-07T02:13:50;15.43;;;7.77;;
10144;SDS011;5113;41.822;23.564;2022-12-07T02:17:02;10.63;;;8.80;;
10144;SDS011;5113;41.822;23.564;2022-12-07T02:20:20;6.50;;;5.03;;
10144;SDS011;5113;41.822;23.564;2022-12-07T02:23:38;4.57;;;3.93;;
10144;SDS011;5113;41.822;23.564;2022-12-07T02:30:31;12.30;;;4.30;;
10144;SDS011;5113;41.822;23.564;2022-12-07T02:33:42;5.10;;;4.07;;
10144;SDS011;5113;41.822;23.564;2022-12-07T02:36:52;4.13;;;3.73;;
10144;SDS011;5113;41.822;23.564;2022-12-07T02:40:04;9.90;;;4.40;;
10144;SDS011;5113;41.822;23.564;2022-12-07T02:43:16;4.70;;;3.73;;
10144;SDS011;5113;41.822;23.564;2022-12-07T02:46:28;9.67;;;3.30;;
10144;SDS011;5113;41.822;23.564;2022-12-07T02:49:38;5.40;;;4.90;;
10144;SDS011;5113;41.822;23.564;2022-12-07T02:52:45;8.30;;;5.83;;
10144;SDS011;5113;41.822;23.564;2022-12-07T02:55:51;19.80;;;11.13;;
10144;SDS011;5113;41.822;23.564;2022-12-07T02:58:59;12.43;;;8.73;;
10144;SDS011;5113;41.822;23.564;2022-12-07T03:02:19;13.07;;;8.17;;
10144;SDS011;5113;41.822;23.564;2022-12-07T03:09:13;6.57;;;5.77;;
10144;SDS011;5113;41.822;23.564;2022-12-07T03:12:26;14.53;;;8.00;;
10144;SDS011;5113;41.822;23.564;2022-12-07T03:15:39;10.37;;;6.80;;
10144;SDS011;5113;41.822;23.564;2022-12-07T03:18:52;9.47;;;6.03;;
10144;SDS011;5113;41.822;23.564;2022-12-07T03:22:02;10.47;;;7.70;;
10144;SDS011;5113;41.822;23.564;2022-12-07T03:25:13;20.17;;;11.07;;
10144;SDS011;5113;41.822;23.564;2022-12-07T03:28:22;14.00;;;9.50;;
10144;SDS011;5113;41.822;23.564;2022-12-07T03:31:32;14.90;;;8.10;;
10144;SDS011;5113;41.822;23.564;2022-12-07T03:34:46;26.00;;;11.20;;
10144;SDS011;5113;41.822;23.564;2022-12-07T03:37:57;9.00;;;6.63;;
10144;SDS011;5113;41.822;23.564;2022-12-07T03:41:06;13.40;;;6.67;;
10144;SDS011;5113;41.822;23.564;2022-12-07T03:44:17;17.27;;;6.47;;
10144;SDS011;5113;41.822;23.564;2022-12-07T03:47:26;14.90;;;8.97;;
10144;SDS011;5113;41.822;23.564;2022-12-07T03:50:40;8.50;;;5.47;;
10144;SDS011;5113;41.822;23.564;2022-12-07T03:53:52;20.00;;;10.10;;
10144;SDS011;5113;41.822;23.564;2022-12-07T03:57:02;38.70;;;13.63;;
10144;SDS011;5113;41.822;23.564;2022-12-07T04:00:10;39.87;;;16.83;;
10144;SDS011;5113;41.822;23.564;2022-12-07T04:03:18;47.70;;;24.20;;
10144;SDS011;5113;41.822;23.564;2022-12-07T04:06:25;35.83;;;22.67;;
10144;SDS011;5113;41.822;23.564;2022-12-07T04:09:31;28.77;;;15.10;;
10144;SDS011;5113;41.822;23.564;2022-12-07T04:12:38;11.47;;;8.93;;
10144;SDS011;5113;41.822;23.564;2022-12-07T04:15:44;8.23;;;6.80;;
10144;SDS011;5113;41.822;23.564;2022-12-07T04:18:50;12.33;;;6.83;;
10144;SDS011;5113;41.822;23.564;2022-12-07T04:21:59;12.53;;;6.60;;
10144;SDS011;5113;41.822;23.564;2022-12-07T04:25:06;15.77;;;9.07;;
10144;SDS011;5113;41.822;23.564;2022-12-07T04:28:13;23.43;;;10.90;;
10144;SDS011;5113;41.822;23.564;2022-12-07T04:31:19;23.67;;;13.30;;
10144;SDS011;5113;41.822;23.564;2022-12-07T04:34:25;39.30;;;22.03;;
10144;SDS011;5113;41.822;23.564;2022-12-07T04:37:33;39.20;;;18.70;;
10144;SDS011;5113;41.822;23.564;2022-12-07T04:40:39;24.63;;;15.17;;
10144;SDS011;5113;41.822;23.564;2022-12-07T04:43:46;21.73;;;11.00;;
10144;SDS011;5113;41.822;23.564;2022-12-07T04:46:52;18.23;;;11.97;;
10144;SDS011;5113;41.822;23.564;2022-12-07T04:49:59;23.53;;;12.43;;
10144;SDS011;5113;41.822;23.564;2022-12-07T04:53:07;34.20;;;11.20;;
10144;SDS011;5113;41.822;23.564;2022-12-07T04:56:15;15.13;;;10.50;;
10144;SDS011;5113;41.822;23.564;2022-12-07T04:59:23;13.77;;;10.37;;
10144;SDS011;5113;41.822;23.564;2022-12-07T05:02:29;11.90;;;10.03;;
10144;SDS011;5113;41.822;23.564;2022-12-07T05:05:35;16.27;;;11.50;;
10144;SDS011;5113;41.822;23.564;2022-12-07T05:08:43;20.17;;;12.97;;
10144;SDS011;5113;41.822;23.564;2022-12-07T05:11:50;31.33;;;19.57;;
10144;SDS011;5113;41.822;23.564;2022-12-07T05:14:56;24.97;;;17.70;;
10144;SDS011;5113;41.822;23.564;2022-12-07T05:18:02;9.23;;;6.97;;
10144;SDS011;5113;41.822;23.564;2022-12-07T05:21:08;17.80;;;12.40;;
10144;SDS011;5113;41.822;23.564;2022-12-07T05:24:16;23.93;;;12.50;;
10144;SDS011;5113;41.822;23.564;2022-12-07T05:27:23;13.87;;;11.40;;
10144;SDS011;5113;41.822;23.564;2022-12-07T05:30:29;22.83;;;12.23;;
10144;SDS011;5113;41.822;23.564;2022-12-07T05:33:35;25.73;;;14.50;;
10144;SDS011;5113;41.822;23.564;2022-12-07T05:36:42;20.03;;;13.93;;
10144;SDS011;5113;41.822;23.564;2022-12-07T05:39:49;36.53;;;16.73;;
10144;SDS011;5113;41.822;23.564;2022-12-07T05:42:55;34.43;;;17.27;;
10144;SDS011;5113;41.822;23.564;2022-12-07T05:46:07;29.57;;;14.00;;
10144;SDS011;5113;41.822;23.564;2022-12-07T05:49:14;31.40;;;17.27;;
10144;SDS011;5113;41.822;23.564;2022-12-07T05:52:20;20.70;;;12.60;;
10144;SDS011;5113;41.822;23.564;2022-12-07T05:55:28;36.73;;;19.90;;
10144;SDS011;5113;41.822;23.564;2022-12-07T05:58:34;46.40;;;24.20;;
10144;SDS011;5113;41.822;23.564;2022-12-07T06:01:59;62.07;;;31.60;;
10144;SDS011;5113;41.822;23.564;2022-12-07T06:05:07;83.43;;;37.07;;
10144;SDS011;5113;41.822;23.564;2022-12-07T06:08:13;45.87;;;28.60;;
10144;SDS011;5113;41.822;23.564;2022-12-07T06:11:21;44.00;;;22.57;;
10144;SDS011;5113;41.822;23.564;2022-12-07T06:14:44;43.77;;;22.07;;
10144;SDS011;5113;41.822;23.564;2022-12-07T06:17:51;144.07;;;58.00;;
10144;SDS011;5113;41.822;23.564;2022-12-07T06:20:57;106.50;;;43.47;;
10144;SDS011;5113;41.822;23.564;2022-12-07T06:24:03;68.80;;;29.67;;
10144;SDS011;5113;41.822;23.564;2022-12-07T06:27:29;128.57;;;52.63;;
10144;SDS011;5113;41.822;23.564;2022-12-07T06:30:37;141.37;;;59.30;;
10144;SDS011;5113;41.822;23.564;2022-12-07T06:33:43;66.83;;;30.63;;
10144;SDS011;5113;41.822;23.564;2022-12-07T06:36:49;77.00;;;39.03;;
10144;SDS011;5113;41.822;23.564;2022-12-07T06:39:57;54.37;;;29.23;;
10144;SDS011;5113;41.822;23.564;2022-12-07T06:43:06;78.90;;;40.50;;
10144;SDS011;5113;41.822;23.564;2022-12-07T06:46:13;67.07;;;29.33;;
10144;SDS011;5113;41.822;23.564;2022-12-07T06:49:20;63.37;;;25.83;;
10144;SDS011;5113;41.822;23.564;2022-12-07T06:52:26;63.43;;;27.20;;
10144;SDS011;5113;41.822;23.564;2022-12-07T06:55:32;58.23;;;25.30;;
10144;SDS011;5113;41.822;23.564;2022-12-07T06:58:40;65.60;;;33.40;;
10144;SDS011;5113;41.822;23.564;2022-12-07T07:01:46;66.90;;;29.70;;
10144;SDS011;5113;41.822;23.564;2022-12-07T07:04:53;44.87;;;26.73;;
10144;SDS011;5113;41.822;23.564;2022-12-07T07:07:59;75.27;;;30.63;;
10144;SDS011;5113;41.822;23.564;2022-12-07T07:11:25;97.33;;;34.37;;
10144;SDS011;5113;41.822;23.564;2022-12-07T07:14:33;91.97;;;43.13;;
10144;SDS011;5113;41.822;23.564;2022-12-07T07:17:40;97.50;;;42.97;;
10144;SDS011;5113;41.822;23.564;2022-12-07T07:20:46;60.30;;;27.10;;
10144;SDS011;5113;41.822;23.564;2022-12-07T07:23:52;85.30;;;37.60;;
10144;SDS011;5113;41.822;23.564;2022-12-07T07:26:59;69.43;;;36.17;;
10144;SDS011;5113;41.822;23.564;2022-12-07T07:30:07;39.33;;;22.07;;
10144;SDS011;5113;41.822;23.564;2022-12-07T07:33:14;30.93;;;15.53;;
10144;SDS011;5113;41.822;23.564;2022-12-07T07:36:21;24.00;;;11.70;;
10144;SDS011;5113;41.822;23.564;2022-12-07T07:39:27;22.17;;;10.83;;
10144;SDS011;5113;41.822;23.564;2022-12-07T07:42:34;30.57;;;15.93;;
10144;SDS011;5113;41.822;23.564;2022-12-07T07:45:41;30.30;;;17.43;;
10144;SDS011;5113;41.822;23.564;2022-12-07T07:48:47;33.17;;;17.87;;
10144;SDS011;5113;41.822;23.564;2022-12-07T07:51:54;26.73;;;16.03;;
10144;SDS011;5113;41.822;23.564;2022-12-07T07:55:00;29.83;;;18.47;;
10144;SDS011;5113;41.822;23.564;2022-12-07T07:58:07;85.23;;;40.10;;
10144;SDS011;5113;41.822;23.564;2022-12-07T08:01:15;45.90;;;25.23;;
10144;SDS011;5113;41.822;23.564;2022-12-07T08:04:24;48.40;;;24.20;;
10144;SDS011;5113;41.822;23.564;2022-12-07T08:07:30;51.63;;;30.40;;
10144;SDS011;5113;41.822;23.564;2022-12-07T08:10:37;70.10;;;32.73;;
10144;SDS011;5113;41.822;23.564;2022-12-07T08:13:44;52.43;;;29.67;;
10144;SDS011;5113;41.822;23.564;2022-12-07T08:16:52;31.50;;;17.43;;
10144;SDS011;5113;41.822;23.564;2022-12-07T08:19:59;10.30;;;8.10;;
10144;SDS011;5113;41.822;23.564;2022-12-07T08:23:06;14.23;;;7.80;;
10144;SDS011;5113;41.822;23.564;2022-12-07T08:26:14;24.13;;;9.77;;
10144;SDS011;5113;41.822;23.564;2022-12-07T08:29:22;10.43;;;7.43;;
10144;SDS011;5113;41.822;23.564;2022-12-07T08:32:29;10.87;;;7.07;;
10144;SDS011;5113;41.822;23.564;2022-12-07T08:35:36;21.47;;;9.47;;
10144;SDS011;5113;41.822;23.564;2022-12-07T08:38:42;10.20;;;7.37;;
10144;SDS011;5113;41.822;23.564;2022-12-07T08:42:09;15.77;;;11.53;;
10144;SDS011;5113;41.822;23.564;2022-12-07T08:45:16;44.23;;;19.87;;
10144;SDS011;5113;41.822;23.564;2022-12-07T08:48:31;19.17;;;9.53;;
10144;SDS011;5113;41.822;23.564;2022-12-07T08:51:40;10.17;;;7.67;;
10144;SDS011;5113;41.822;23.564;2022-12-07T08:54:47;21.53;;;10.10;;
10144;SDS011;5113;41.822;23.564;2022-12-07T08:57:54;12.83;;;7.20;;
10144;SDS011;5113;41.822;23.564;2022-12-07T09:01:02;19.87;;;10.90;;
10144;SDS011;5113;41.822;23.564;2022-12-07T09:04:10;24.83;;;13.77;;
10144;SDS011;5113;41.822;23.564;2022-12-07T09:07:17;30.47;;;12.13;;
10144;SDS011;5113;41.822;23.564;2022-12-07T09:10:24;12.50;;;7.70;;
10144;SDS011;5113;41.822;23.564;2022-12-07T09:13:30;14.30;;;8.00;;
10144;SDS011;5113;41.822;23.564;2022-12-07T09:16:36;13.30;;;8.97;;
10144;SDS011;5113;41.822;23.564;2022-12-07T09:19:44;13.47;;;8.83;;
10144;SDS011;5113;41.822;23.564;2022-12-07T09:22:50;18.20;;;7.73;;
10144;SDS011;5113;41.822;23.564;2022-12-07T09:25:58;15.23;;;10.50;;
10144;SDS011;5113;41.822;23.564;2022-12-07T09:29:13;15.97;;;10.57;;
10144;SDS011;5113;41.822;23.564;2022-12-07T09:32:20;10.30;;;8.00;;
10144;SDS011;5113;41.822;23.564;2022-12-07T09:35:28;20.50;;;10.37;;
10144;SDS011;5113;41.822;23.564;2022-12-07T09:38:35;18.23;;;9.87;;
10144;SDS011;5113;41.822;23.564;2022-12-07T09:41:41;16.47;;;8.63;;
10144;SDS011;5113;41.822;23.564;2022-12-07T09:44:49;13.47;;;7.40;;
10144;SDS011;5113;41.822;23.564;2022-12-07T09:47:56;14.93;;;8.27;;
10144;SDS011;5113;41.822;23.564;2022-12-07T09:51:12;16.37;;;10.87;;
10144;SDS011;5113;41.822;23.564;2022-12-07T09:54:27;19.60;;;9.17;;
10144;SDS011;5113;41.822;23.564;2022-12-07T09:57:36;23.70;;;10.73;;
10144;SDS011;5113;41.822;23.564;2022-12-07T10:00:43;16.83;;;9.10;;
10144;SDS011;5113;41.822;23.564;2022-12-07T10:03:50;11.60;;;7.30;;
10144;SDS011;5113;41.822;23.564;2022-12-07T10:06:59;12.20;;;6.93;;
10144;SDS011;5113;41.822;23.564;2022-12-07T10:10:09;6.87;;;4.67;;
10144;SDS011;5113;41.822;23.564;2022-12-07T10:13:21;7.07;;;4.27;;
10144;SDS011;5113;41.822;23.564;2022-12-07T10:16:31;23.57;;;6.23;;
10144;SDS011;5113;41.822;23.564;2022-12-07T10:19:43;4.70;;;3.57;;
10144;SDS011;5113;41.822;23.564;2022-12-07T10:22:58;8.47;;;5.20;;
10144;SDS011;5113;41.822;23.564;2022-12-07T10:29:46;11.47;;;8.10;;
10144;SDS011;5113;41.822;23.564;2022-12-07T10:32:54;15.80;;;8.77;;
10144;SDS011;5113;41.822;23.564;2022-12-07T10:36:09;6.57;;;5.70;;
10144;SDS011;5113;41.822;23.564;2022-12-07T10:39:26;7.63;;;5.37;;
10144;SDS011;5113;41.822;23.564;2022-12-07T10:42:32;17.17;;;8.37;;
10144;SDS011;5113;41.822;23.564;2022-12-07T10:45:42;29.73;;;11.17;;
10144;SDS011;5113;41.822;23.564;2022-12-07T10:49:27;18.60;;;10.50;;
10144;SDS011;5113;41.822;23.564;2022-12-07T10:53:01;17.83;;;8.27;;
10144;SDS011;5113;41.822;23.564;2022-12-07T10:56:41;10.17;;;6.83;;
10144;SDS011;5113;41.822;23.564;2022-12-07T11:00:10;12.43;;;6.33;;
10144;SDS011;5113;41.822;23.564;2022-12-07T11:03:23;19.73;;;9.27;;
10144;SDS011;5113;41.822;23.564;2022-12-07T11:06:44;19.70;;;11.07;;
10144;SDS011;5113;41.822;23.564;2022-12-07T11:10:02;15.83;;;9.77;;
10144;SDS011;5113;41.822;23.564;2022-12-07T11:13:29;12.83;;;8.67;;
10144;SDS011;5113;41.822;23.564;2022-12-07T11:16:53;18.80;;;9.07;;
10144;SDS011;5113;41.822;23.564;2022-12-07T11:20:05;19.63;;;9.87;;
10144;SDS011;5113;41.822;23.564;2022-12-07T11:23:30;27.63;;;14.53;;
10144;SDS011;5113;41.822;23.564;2022-12-07T11:26:55;33.27;;;16.63;;
10144;SDS011;5113;41.822;23.564;2022-12-07T11:30:16;13.67;;;8.03;;
10144;SDS011;5113;41.822;23.564;2022-12-07T11:33:27;8.80;;;6.47;;
10144;SDS011;5113;41.822;23.564;2022-12-07T11:36:40;10.70;;;5.57;;
10144;SDS011;5113;41.822;23.564;2022-12-07T11:39:49;9.67;;;7.13;;
10144;SDS011;5113;41.822;23.564;2022-12-07T11:43:00;6.13;;;5.30;;
10144;SDS011;5113;41.822;23.564;2022-12-07T11:46:12;8.60;;;5.87;;
10144;SDS011;5113;41.822;23.564;2022-12-07T11:49:21;11.90;;;7.33;;
10144;SDS011;5113;41.822;23.564;2022-12-07T11:52:38;8.73;;;5.43;;
10144;SDS011;5113;41.822;23.564;2022-12-07T11:55:52;7.10;;;4.73;;
10144;SDS011;5113;41.822;23.564;2022-12-07T11:59:04;11.43;;;7.83;;
10144;SDS011;5113;41.822;23.564;2022-12-07T12:02:20;13.13;;;7.57;;
10144;SDS011;5113;41.822;23.564;2022-12-07T12:05:32;12.60;;;6.70;;
10144;SDS011;5113;41.822;23.564;2022-12-07T12:08:39;8.43;;;5.27;;
10144;SDS011;5113;41.822;23.564;2022-12-07T12:12:20;7.67;;;5.77;;
10144;SDS011;5113;41.822;23.564;2022-12-07T12:16:15;6.67;;;5.03;;
10144;SDS011;5113;41.822;23.564;2022-12-07T12:19:43;12.20;;;7.43;;
10144;SDS011;5113;41.822;23.564;2022-12-07T12:23:06;19.90;;;9.37;;
10144;SDS011;5113;41.822;23.564;2022-12-07T12:26:18;23.80;;;11.00;;
10144;SDS011;5113;41.822;23.564;2022-12-07T12:29:27;15.53;;;9.67;;
10144;SDS011;5113;41.822;23.564;2022-12-07T12:32:39;17.13;;;9.90;;
10144;SDS011;5113;41.822;23.564;2022-12-07T12:35:50;15.37;;;7.63;;
10144;SDS011;5113;41.822;23.564;2022-12-07T12:39:27;12.53;;;7.43;;
10144;SDS011;5113;41.822;23.564;2022-12-07T12:42:43;17.37;;;8.27;;
10144;SDS011;5113;41.822;23.564;2022-12-07T12:45:51;13.57;;;8.13;;
10144;SDS011;5113;41.822;23.564;2022-12-07T12:49:39;7.23;;;5.90;;
10144;SDS011;5113;41.822;23.564;2022-12-07T12:56:27;12.20;;;7.87;;
10144;SDS011;5113;41.822;23.564;2022-12-07T12:59:43;23.63;;;9.13;;
10144;SDS011;5113;41.822;23.564;2022-12-07T13:03:03;13.17;;;6.73;;
10144;SDS011;5113;41.822;23.564;2022-12-07T13:06:20;10.10;;;6.53;;
10144;SDS011;5113;41.822;23.564;2022-12-07T13:09:42;7.70;;;5.70;;
10144;SDS011;5113;41.822;23.564;2022-12-07T13:12:59;10.13;;;6.40;;
10144;SDS011;5113;41.822;23.564;2022-12-07T13:19:55;10.90;;;7.27;;
10144;SDS011;5113;41.822;23.564;2022-12-07T13:23:03;12.53;;;8.63;;
10144;SDS011;5113;41.822;23.564;2022-12-07T13:26:17;10.70;;;7.47;;
10144;SDS011;5113;41.822;23.564;2022-12-07T13:29:25;17.77;;;10.33;;
10144;SDS011;5113;41.822;23.564;2022-12-07T13:32:31;18.47;;;10.73;;
10144;SDS011;5113;41.822;23.564;2022-12-07T13:35:38;14.93;;;9.40;;
10144;SDS011;5113;41.822;23.564;2022-12-07T13:38:48;20.57;;;12.40;;
10144;SDS011;5113;41.822;23.564;2022-12-07T13:41:56;16.03;;;9.40;;
10144;SDS011;5113;41.822;23.564;2022-12-07T13:48:50;10.23;;;7.60;;
10144;SDS011;5113;41.822;23.564;2022-12-07T13:52:07;35.50;;;14.47;;
10144;SDS011;5113;41.822;23.564;2022-12-07T13:55:20;96.77;;;34.00;;
10144;SDS011;5113;41.822;23.564;2022-12-07T13:58:26;115.00;;;41.33;;
10144;SDS011;5113;41.822;23.564;2022-12-07T14:01:37;79.60;;;35.97;;
10144;SDS011;5113;41.822;23.564;2022-12-07T14:04:43;51.80;;;23.10;;
10144;SDS011;5113;41.822;23.564;2022-12-07T14:07:52;71.23;;;29.03;;
10144;SDS011;5113;41.822;23.564;2022-12-07T14:11:00;20.53;;;13.93;;
10144;SDS011;5113;41.822;23.564;2022-12-07T14:14:10;89.70;;;39.40;;
10144;SDS011;5113;41.822;23.564;2022-12-07T14:17:24;26.13;;;16.67;;
10144;SDS011;5113;41.822;23.564;2022-12-07T14:20:32;66.03;;;29.57;;
10144;SDS011;5113;41.822;23.564;2022-12-07T14:23:39;53.80;;;25.57;;
10144;SDS011;5113;41.822;23.564;2022-12-07T14:26:47;81.47;;;37.33;;
10144;SDS011;5113;41.822;23.564;2022-12-07T14:29:54;60.17;;;25.80;;
10144;SDS011;5113;41.822;23.564;2022-12-07T14:33:02;30.07;;;16.47;;
10144;SDS011;5113;41.822;23.564;2022-12-07T14:36:11;33.77;;;20.73;;
10144;SDS011;5113;41.822;23.564;2022-12-07T14:39:18;46.93;;;22.30;;
10144;SDS011;5113;41.822;23.564;2022-12-07T14:42:26;54.93;;;26.87;;
10144;SDS011;5113;41.822;23.564;2022-12-07T14:45:35;72.57;;;28.47;;
10144;SDS011;5113;41.822;23.564;2022-12-07T14:48:42;81.67;;;36.73;;
10144;SDS011;5113;41.822;23.564;2022-12-07T14:52:11;86.57;;;38.00;;
10144;SDS011;5113;41.822;23.564;2022-12-07T14:55:40;93.40;;;38.80;;
10144;SDS011;5113;41.822;23.564;2022-12-07T14:58:46;58.77;;;25.93;;
10144;SDS011;5113;41.822;23.564;2022-12-07T15:01:53;38.33;;;18.70;;
10144;SDS011;5113;41.822;23.564;2022-12-07T15:05:00;74.73;;;34.20;;
10144;SDS011;5113;41.822;23.564;2022-12-07T15:08:08;67.83;;;30.63;;
10144;SDS011;5113;41.822;23.564;2022-12-07T15:11:15;50.27;;;26.63;;
10144;SDS011;5113;41.822;23.564;2022-12-07T15:14:23;67.17;;;30.80;;
10144;SDS011;5113;41.822;23.564;2022-12-07T15:17:29;81.57;;;34.70;;
10144;SDS011;5113;41.822;23.564;2022-12-07T15:20:37;69.30;;;31.97;;
10144;SDS011;5113;41.822;23.564;2022-12-07T15:23:44;53.40;;;25.97;;
10144;SDS011;5113;41.822;23.564;2022-12-07T15:26:52;51.23;;;27.33;;
10144;SDS011;5113;41.822;23.564;2022-12-07T15:29:58;49.60;;;27.53;;
10144;SDS011;5113;41.822;23.564;2022-12-07T15:33:05;66.57;;;31.13;;
10144;SDS011;5113;41.822;23.564;2022-12-07T15:36:15;75.47;;;32.03;;
10144;SDS011;5113;41.822;23.564;2022-12-07T15:39:25;79.27;;;34.03;;
10144;SDS011;5113;41.822;23.564;2022-12-07T15:42:31;84.17;;;37.53;;
10144;SDS011;5113;41.822;23.564;2022-12-07T15:45:37;71.47;;;32.67;;
10144;SDS011;5113;41.822;23.564;2022-12-07T15:48:43;70.53;;;33.30;;
10144;SDS011;5113;41.822;23.564;2022-12-07T15:51:53;76.40;;;38.20;;
10144;SDS011;5113;41.822;23.564;2022-12-07T15:54:59;82.10;;;39.40;;
10144;SDS011;5113;41.822;23.564;2022-12-07T15:58:07;73.97;;;33.57;;
10144;SDS011;5113;41.822;23.564;2022-12-07T16:01:14;54.40;;;27.23;;
10144;SDS011;5113;41.822;23.564;2022-12-07T16:04:23;90.13;;;34.57;;
10144;SDS011;5113;41.822;23.564;2022-12-07T16:07:30;58.47;;;29.47;;
10144;SDS011;5113;41.822;23.564;2022-12-07T16:10:36;95.67;;;32.13;;
10144;SDS011;5113;41.822;23.564;2022-12-07T16:13:43;123.83;;;47.57;;
10144;SDS011;5113;41.822;23.564;2022-12-07T16:16:49;123.20;;;46.87;;
10144;SDS011;5113;41.822;23.564;2022-12-07T16:19:55;113.33;;;43.93;;
10144;SDS011;5113;41.822;23.564;2022-12-07T16:23:03;116.37;;;52.27;;
10144;SDS011;5113;41.822;23.564;2022-12-07T16:26:10;133.43;;;58.30;;
10144;SDS011;5113;41.822;23.564;2022-12-07T16:29:19;117.73;;;52.30;;
10144;SDS011;5113;41.822;23.564;2022-12-07T16:32:27;129.73;;;44.63;;
10144;SDS011;5113;41.822;23.564;2022-12-07T16:35:33;118.93;;;50.37;;
10144;SDS011;5113;41.822;23.564;2022-12-07T16:38:41;63.83;;;34.07;;
10144;SDS011;5113;41.822;23.564;2022-12-07T16:41:55;65.53;;;31.57;;
10144;SDS011;5113;41.822;23.564;2022-12-07T16:45:01;95.40;;;37.17;;
10144;SDS011;5113;41.822;23.564;2022-12-07T16:48:08;52.50;;;26.83;;
10144;SDS011;5113;41.822;23.564;2022-12-07T16:51:14;49.23;;;19.43;;
10144;SDS011;5113;41.822;23.564;2022-12-07T16:54:22;34.77;;;16.67;;
10144;SDS011;5113;41.822;23.564;2022-12-07T16:57:28;58.13;;;25.47;;
10144;SDS011;5113;41.822;23.564;2022-12-07T17:00:36;43.00;;;21.77;;
10144;SDS011;5113;41.822;23.564;2022-12-07T17:03:43;43.20;;;21.13;;
10144;SDS011;5113;41.822;23.564;2022-12-07T17:06:49;43.47;;;19.17;;
10144;SDS011;5113;41.822;23.564;2022-12-07T17:09:57;48.40;;;23.33;;
10144;SDS011;5113;41.822;23.564;2022-12-07T17:13:03;131.60;;;50.03;;
10144;SDS011;5113;41.822;23.564;2022-12-07T17:16:30;118.20;;;45.93;;
10144;SDS011;5113;41.822;23.564;2022-12-07T17:19:36;33.90;;;17.73;;
10144;SDS011;5113;41.822;23.564;2022-12-07T17:22:43;34.27;;;24.33;;
10144;SDS011;5113;41.822;23.564;2022-12-07T17:25:51;31.90;;;15.47;;
10144;SDS011;5113;41.822;23.564;2022-12-07T17:28:58;30.60;;;16.67;;
10144;SDS011;5113;41.822;23.564;2022-12-07T17:32:05;43.73;;;21.43;;
10144;SDS011;5113;41.822;23.564;2022-12-07T17:35:11;89.93;;;41.13;;
10144;SDS011;5113;41.822;23.564;2022-12-07T17:38:18;88.27;;;42.20;;
10144;SDS011;5113;41.822;23.564;2022-12-07T17:41:26;95.57;;;41.00;;
10144;SDS011;5113;41.822;23.564;2022-12-07T17:44:50;73.80;;;34.33;;
10144;SDS011;5113;41.822;23.564;2022-12-07T17:47:56;85.53;;;39.50;;
10144;SDS011;5113;41.822;23.564;2022-12-07T17:51:03;96.90;;;43.07;;
10144;SDS011;5113;41.822;23.564;2022-12-07T17:57:53;75.20;;;34.43;;
10144;SDS011;5113;41.822;23.564;2022-12-07T18:01:01;72.47;;;37.33;;
10144;SDS011;5113;41.822;23.564;2022-12-07T18:04:07;74.40;;;33.43;;
10144;SDS011;5113;41.822;23.564;2022-12-07T18:07:14;76.30;;;38.87;;
10144;SDS011;5113;41.822;23.564;2022-12-07T18:10:20;45.50;;;21.07;;
10144;SDS011;5113;41.822;23.564;2022-12-07T18:13:28;37.20;;;20.80;;
10144;SDS011;5113;41.822;23.564;2022-12-07T18:16:40;39.43;;;18.40;;
10144;SDS011;5113;41.822;23.564;2022-12-07T18:19:47;44.70;;;19.20;;
10144;SDS011;5113;41.822;23.564;2022-12-07T18:22:53;27.17;;;15.63;;
10144;SDS011;5113;41.822;23.564;2022-12-07T18:25:59;39.30;;;17.50;;
10144;SDS011;5113;41.822;23.564;2022-12-07T18:29:07;32.23;;;18.73;;
10144;SDS011;5113;41.822;23.564;2022-12-07T18:32:15;45.03;;;20.60;;
10144;SDS011;5113;41.822;23.564;2022-12-07T18:35:22;27.47;;;15.57;;
10144;SDS011;5113;41.822;23.564;2022-12-07T18:38:29;17.30;;;8.93;;
10144;SDS011;5113;41.822;23.564;2022-12-07T18:41:36;56.70;;;23.97;;
10144;SDS011;5113;41.822;23.564;2022-12-07T18:44:44;56.70;;;29.80;;
10144;SDS011;5113;41.822;23.564;2022-12-07T18:47:51;44.20;;;22.90;;
10144;SDS011;5113;41.822;23.564;2022-12-07T18:50:58;39.10;;;18.63;;
10144;SDS011;5113;41.822;23.564;2022-12-07T18:54:07;29.40;;;16.27;;
10144;SDS011;5113;41.822;23.564;2022-12-07T18:57:14;23.43;;;14.60;;
10144;SDS011;5113;41.822;23.564;2022-12-07T19:00:22;29.77;;;16.23;;
10144;SDS011;5113;41.822;23.564;2022-12-07T19:03:28;30.53;;;16.47;;
10144;SDS011;5113;41.822;23.564;2022-12-07T19:06:37;50.80;;;25.67;;